Time;durP1;ratioP1;P1;durP2;ratioP2;P2;SDS_P1;SDS_P2;PMS_P1;PMS_P2;Temp;Humidity;BMP_temperature;BMP_pressure;BME280_temperature;BME280_humidity;BME280_pressure;Samples;Min_cycle;Max_cycle;Signal;HPM_P1;HPM_P2
2021/10/05 00:00:53;;;;;;;12.27;9.23;;;;;;;-140.05;100.00;61859.38;5004547;28;20453;-65
2021/10/05 00:03:20;;;;;;;12.93;8.97;;;;;;;-140.05;100.00;61859.38;5000591;28;20444;-63
2021/10/05 00:05:47;;;;;;;15.30;9.17;;;;;;;-140.05;100.00;61859.38;4994249;28;20507;-63
2021/10/05 00:08:14;;;;;;;15.90;9.80;;;;;;;-140.05;100.00;61859.38;5022053;28;20449;-63
2021/10/05 00:10:41;;;;;;;14.23;9.53;;;;;;;-140.05;100.00;61859.38;5011456;28;20942;-67
2021/10/05 00:13:08;;;;;;;16.57;9.80;;;;;;;-140.05;100.00;61859.38;5011626;28;20451;-64
2021/10/05 00:15:35;;;;;;;18.07;10.10;;;;;;;-140.05;100.00;61859.38;5010946;28;20434;-63
2021/10/05 00:18:03;;;;;;;15.47;9.37;;;;;;;-140.05;100.00;61859.38;5004229;28;20476;-63
2021/10/05 00:20:30;;;;;;;13.83;10.00;;;;;;;-140.05;100.00;61859.38;5014181;28;20833;-64
2021/10/05 00:22:58;;;;;;;15.23;9.10;;;;;;;-140.05;100.00;61859.38;5012232;28;20814;-64
2021/10/05 00:25:25;;;;;;;13.50;9.57;;;;;;;-140.05;100.00;61859.38;5011668;28;20936;-63
2021/10/05 00:27:52;;;;;;;11.70;9.40;;;;;;;-140.05;100.00;61859.38;5013687;28;20447;-65
2021/10/05 00:30:19;;;;;;;13.83;9.70;;;;;;;-140.05;100.00;61859.38;5021952;28;20460;-63
2021/10/05 00:32:47;;;;;;;14.03;9.20;;;;;;;-140.05;100.00;61859.38;5007924;28;20444;-65
2021/10/05 00:35:14;;;;;;;14.57;9.70;;;;;;;-140.05;100.00;61859.38;5009757;28;20448;-65
2021/10/05 00:37:41;;;;;;;16.53;9.70;;;;;;;-140.05;100.00;61859.38;5020761;28;20440;-64
2021/10/05 00:40:09;;;;;;;11.37;9.10;;;;;;;-140.05;100.00;61859.38;5003411;28;20463;-64
2021/10/05 00:42:36;;;;;;;14.00;9.03;;;;;;;-140.05;100.00;61859.38;5012088;28;20497;-65
2021/10/05 00:45:05;;;;;;;14.23;9.57;;;;;;;-140.05;100.00;61859.38;5011681;28;20484;-65
2021/10/05 00:47:32;;;;;;;15.27;10.20;;;;;;;-140.05;100.00;61859.38;5008988;28;20993;-64
2021/10/05 00:49:59;;;;;;;12.67;9.67;;;;;;;-140.05;100.00;61859.38;5012719;28;20449;-65
2021/10/05 00:52:26;;;;;;;12.47;9.70;;;;;;;-140.05;100.00;61859.38;5009415;28;20443;-63
2021/10/05 00:54:52;;;;;;;14.73;9.10;;;;;;;-140.05;100.00;61859.38;5009227;28;20459;-63
2021/10/05 00:57:19;;;;;;;11.13;9.70;;;;;;;-140.05;100.00;61859.38;5002608;28;20996;-65
2021/10/05 00:59:47;;;;;;;13.87;9.57;;;;;;;-140.05;100.00;61859.38;5001157;28;20849;-66
2021/10/05 01:02:14;;;;;;;15.87;9.70;;;;;;;-140.05;100.00;61859.38;5010090;28;20914;-64
2021/10/05 01:04:43;;;;;;;11.93;9.40;;;;;;;-140.05;100.00;61859.38;4999839;28;20580;-63
2021/10/05 01:07:14;;;;;;;14.57;9.67;;;;;;;-140.05;100.00;61859.38;5019110;28;20964;-65
2021/10/05 01:09:42;;;;;;;13.73;9.73;;;;;;;-140.05;100.00;61859.38;5010788;28;20964;-64
2021/10/05 01:12:09;;;;;;;13.83;10.10;;;;;;;-140.05;100.00;61859.38;5010306;28;20467;-66
2021/10/05 01:14:36;;;;;;;14.67;9.53;;;;;;;-140.05;100.00;61859.38;5002736;28;20848;-66
2021/10/05 01:17:05;;;;;;;11.47;10.07;;;;;;;-140.05;100.00;61859.38;5017912;28;20451;-65
2021/10/05 01:19:32;;;;;;;13.30;10.20;;;;;;;-140.05;100.00;61859.38;5026127;28;20946;-65
2021/10/05 01:22:00;;;;;;;12.53;10.13;;;;;;;-140.05;100.00;61859.38;5019966;28;20449;-65
2021/10/05 01:24:27;;;;;;;12.93;9.87;;;;;;;-140.05;100.00;61859.38;5015426;28;20472;-65
2021/10/05 01:26:56;;;;;;;13.80;9.80;;;;;;;-140.05;100.00;61859.38;5019517;28;20448;-65
2021/10/05 01:32:11;;;;;;;14.20;9.47;;;;;;;-140.05;100.00;61859.38;5013824;28;20455;-64
2021/10/05 01:34:38;;;;;;;15.57;9.13;;;;;;;-140.05;100.00;61859.38;5014227;28;20441;-64
2021/10/05 01:37:05;;;;;;;15.97;10.17;;;;;;;-140.05;100.00;61859.38;5007043;28;20449;-64
2021/10/05 01:39:40;;;;;;;14.23;10.33;;;;;;;-140.05;100.00;61859.38;5015332;28;21119;-64
2021/10/05 01:42:10;;;;;;;12.40;10.17;;;;;;;-140.05;100.00;61859.38;5018397;28;20952;-64
2021/10/05 01:44:39;;;;;;;15.33;10.23;;;;;;;-140.05;100.00;61859.38;5014398;28;20472;-64
2021/10/05 01:47:07;;;;;;;13.87;9.50;;;;;;;-140.05;100.00;61859.38;5009832;28;20452;-63
2021/10/05 01:49:35;;;;;;;21.27;11.00;;;;;;;-140.05;100.00;61859.38;5011227;28;20903;-65
2021/10/05 01:52:03;;;;;;;15.03;11.20;;;;;;;-140.05;100.00;61859.38;5012311;28;20468;-64
2021/10/05 01:54:30;;;;;;;18.47;11.67;;;;;;;-140.05;100.00;61859.38;5011744;28;20444;-65
2021/10/05 01:57:00;;;;;;;16.60;11.53;;;;;;;-140.05;100.00;61859.38;5025072;28;20544;-64
2021/10/05 01:59:26;;;;;;;17.23;11.70;;;;;;;-140.05;100.00;61859.38;5018973;28;20487;-66
2021/10/05 02:01:53;;;;;;;20.07;12.53;;;;;;;-140.05;100.00;61859.38;5012581;28;20452;-65
2021/10/05 02:04:20;;;;;;;18.77;13.63;;;;;;;-140.05;100.00;61859.38;4999689;28;20460;-65
2021/10/05 02:06:47;;;;;;;19.40;12.50;;;;;;;-140.05;100.00;61859.38;5009196;28;20955;-65
2021/10/05 02:09:14;;;;;;;23.93;13.50;;;;;;;-140.05;100.00;61859.38;5023932;28;20540;-64
2021/10/05 02:11:41;;;;;;;25.20;12.90;;;;;;;-140.05;100.00;61859.38;5009671;28;20534;-65
2021/10/05 02:14:08;;;;;;;17.10;12.70;;;;;;;-140.05;100.00;61859.38;5010888;28;20447;-64
2021/10/05 02:16:35;;;;;;;18.57;12.17;;;;;;;-140.05;100.00;61859.38;5002360;28;20441;-64
2021/10/05 02:19:04;;;;;;;20.30;12.77;;;;;;;-140.05;100.00;61859.38;5001876;28;20892;-64
2021/10/05 02:21:33;;;;;;;19.33;13.20;;;;;;;-140.05;100.00;61859.38;5008886;28;21024;-64
2021/10/05 02:26:46;;;;;;;20.40;13.93;;;;;;;-140.05;100.00;61859.38;5006031;28;20829;-64
2021/10/05 02:29:14;;;;;;;19.13;12.77;;;;;;;-140.05;100.00;61859.38;4997878;28;20566;-64
2021/10/05 02:31:41;;;;;;;15.73;12.60;;;;;;;-140.05;100.00;61859.38;5012988;28;21130;-63
2021/10/05 02:34:08;;;;;;;18.87;12.17;;;;;;;-140.05;100.00;61859.38;5013693;28;20440;-65
2021/10/05 02:36:35;;;;;;;18.77;12.93;;;;;;;-140.05;100.00;61859.38;5000486;28;20495;-65
2021/10/05 02:39:03;;;;;;;18.17;12.07;;;;;;;-140.05;100.00;61859.38;5009748;28;20448;-65
2021/10/05 02:41:30;;;;;;;19.07;11.80;;;;;;;-140.05;100.00;61859.38;5009144;28;20818;-65
2021/10/05 02:43:57;;;;;;;20.97;12.67;;;;;;;-140.05;100.00;61859.38;5019262;28;20509;-65
2021/10/05 02:46:24;;;;;;;14.47;11.20;;;;;;;-140.05;100.00;61859.38;5020708;28;20933;-64
2021/10/05 02:48:51;;;;;;;15.27;11.33;;;;;;;-140.05;100.00;61859.38;5014423;28;20456;-63
2021/10/05 02:51:17;;;;;;;14.13;10.50;;;;;;;-140.05;100.00;61859.38;5025869;28;20513;-63
2021/10/05 02:53:45;;;;;;;17.77;11.40;;;;;;;-140.05;100.00;61859.38;5009645;28;20444;-63
2021/10/05 02:56:12;;;;;;;17.00;9.87;;;;;;;-140.05;100.00;61859.38;5011871;28;20447;-65
2021/10/05 02:58:39;;;;;;;15.83;10.73;;;;;;;-140.05;100.00;61859.38;4997213;28;20472;-64
2021/10/05 03:01:06;;;;;;;18.70;10.93;;;;;;;-140.05;100.00;61859.38;4993802;28;20510;-63
2021/10/05 03:03:33;;;;;;;19.87;11.00;;;;;;;-140.05;100.00;61859.38;5000383;28;20942;-64
2021/10/05 03:06:00;;;;;;;17.00;10.80;;;;;;;-140.05;100.00;61859.38;5004361;28;20476;-64
2021/10/05 03:08:29;;;;;;;25.10;14.20;;;;;;;-140.05;100.00;61859.38;5018165;28;20436;-64
2021/10/05 03:10:58;;;;;;;20.70;12.47;;;;;;;-140.05;100.00;61859.38;5012376;28;20784;-65
2021/10/05 03:13:29;;;;;;;19.53;12.77;;;;;;;-140.05;100.00;61859.38;5032122;28;20501;-68
2021/10/05 03:15:56;;;;;;;20.37;16.60;;;;;;;-140.05;100.00;61859.38;5019449;28;20943;-66
2021/10/05 03:18:23;;;;;;;22.13;14.30;;;;;;;-140.05;100.00;61859.38;5032734;28;20442;-63
2021/10/05 03:20:50;;;;;;;20.57;12.53;;;;;;;-140.05;100.00;61859.38;5029386;28;20443;-66
2021/10/05 03:23:18;;;;;;;17.10;11.87;;;;;;;-140.05;100.00;61859.38;5019498;28;20998;-66
2021/10/05 03:25:45;;;;;;;20.83;11.50;;;;;;;-140.05;100.00;61859.38;5011352;28;20482;-63
2021/10/05 03:28:12;;;;;;;17.07;11.90;;;;;;;-140.05;100.00;61859.38;4991540;28;20459;-63
2021/10/05 03:30:39;;;;;;;18.73;12.50;;;;;;;-140.05;100.00;61859.38;5013828;28;20494;-64
2021/10/05 03:33:06;;;;;;;19.53;11.87;;;;;;;-140.05;100.00;61859.38;5011922;28;20448;-65
2021/10/05 03:35:33;;;;;;;16.77;10.90;;;;;;;-140.05;100.00;61859.38;4995037;28;20456;-65
2021/10/05 03:38:01;;;;;;;16.63;11.03;;;;;;;-140.05;100.00;61859.38;5004284;28;20518;-66
2021/10/05 03:40:28;;;;;;;16.90;10.93;;;;;;;-140.05;100.00;61859.38;5011420;28;20445;-66
2021/10/05 03:42:55;;;;;;;19.67;11.50;;;;;;;-140.05;100.00;61859.38;5001002;28;20446;-67
2021/10/05 03:45:23;;;;;;;17.53;11.80;;;;;;;-140.05;100.00;61859.38;4998625;28;20469;-66
2021/10/05 03:47:50;;;;;;;16.17;11.90;;;;;;;-140.05;100.00;61859.38;5006002;28;21125;-69
2021/10/05 03:50:18;;;;;;;16.93;12.50;;;;;;;-140.05;100.00;61859.38;5001683;28;20576;-69
2021/10/05 03:52:45;;;;;;;19.17;11.60;;;;;;;-140.05;100.00;61859.38;5014968;28;20847;-67
2021/10/05 03:55:14;;;;;;;20.57;13.27;;;;;;;-140.05;100.00;61859.38;5008650;28;20524;-66
2021/10/05 03:57:41;;;;;;;30.63;13.53;;;;;;;-140.05;100.00;61859.38;5011947;28;20480;-64
2021/10/05 04:00:08;;;;;;;20.13;12.40;;;;;;;-140.05;100.00;61859.38;5006544;28;20464;-66
2021/10/05 04:02:35;;;;;;;23.30;13.17;;;;;;;-140.05;100.00;61859.38;4999040;28;20430;-66
2021/10/05 04:05:03;;;;;;;20.43;12.93;;;;;;;-140.05;100.00;61859.38;5012326;28;20492;-65
2021/10/05 04:07:31;;;;;;;21.97;12.17;;;;;;;-140.05;100.00;61859.38;5011827;28;20441;-67
2021/10/05 04:09:58;;;;;;;21.53;12.50;;;;;;;-140.05;100.00;61859.38;5011950;28;21022;-65
2021/10/05 04:12:25;;;;;;;22.70;11.77;;;;;;;-140.05;100.00;61859.38;5011055;28;21111;-65
2021/10/05 04:14:52;;;;;;;19.53;11.27;;;;;;;-140.05;100.00;61859.38;5011663;28;20441;-64
2021/10/05 04:17:19;;;;;;;20.13;11.83;;;;;;;-140.05;100.00;61859.38;5010990;28;20451;-63
2021/10/05 04:19:45;;;;;;;19.53;12.33;;;;;;;-140.05;100.00;61859.38;5011815;28;20484;-66
2021/10/05 04:22:13;;;;;;;22.37;12.93;;;;;;;-140.05;100.00;61859.38;5011237;28;20541;-64
2021/10/05 04:24:40;;;;;;;21.40;13.17;;;;;;;-140.05;100.00;61859.38;5007348;28;20960;-66
2021/10/05 04:27:10;;;;;;;21.13;12.50;;;;;;;-140.05;100.00;61859.38;4993725;28;20445;-63
2021/10/05 04:29:39;;;;;;;25.53;13.67;;;;;;;-140.05;100.00;61859.38;5009598;28;20437;-63
2021/10/05 04:32:07;;;;;;;19.37;12.63;;;;;;;-140.05;100.00;61859.38;4993541;28;20460;-66
2021/10/05 04:34:34;;;;;;;21.23;12.40;;;;;;;-140.05;100.00;61859.38;4996214;28;20441;-66
2021/10/05 04:37:02;;;;;;;33.30;17.47;;;;;;;-140.05;100.00;61859.38;5010863;28;20947;-65
2021/10/05 04:39:29;;;;;;;24.37;15.90;;;;;;;-140.05;100.00;61859.38;4999284;28;20445;-64
2021/10/05 04:41:55;;;;;;;45.67;35.30;;;;;;;-140.05;100.00;61859.38;4995979;28;20545;-64
2021/10/05 04:44:22;;;;;;;25.53;15.70;;;;;;;-140.05;100.00;61859.38;5006899;28;20467;-62
2021/10/05 04:46:49;;;;;;;23.30;13.83;;;;;;;-140.05;100.00;61859.38;5009874;28;20480;-66
2021/10/05 04:49:16;;;;;;;23.77;13.27;;;;;;;-140.05;100.00;61859.38;5021254;28;20474;-64
2021/10/05 04:51:43;;;;;;;27.30;13.57;;;;;;;-140.05;100.00;61859.38;5026554;28;20527;-66
2021/10/05 04:54:11;;;;;;;40.93;26.70;;;;;;;-140.05;100.00;61859.38;5021040;28;20460;-64
2021/10/05 04:56:38;;;;;;;31.93;18.07;;;;;;;-140.05;100.00;61859.38;5022454;28;20883;-66
2021/10/05 04:59:05;;;;;;;27.20;16.40;;;;;;;-140.05;100.00;61859.38;5020851;28;20483;-64
2021/10/05 05:01:32;;;;;;;28.93;15.47;;;;;;;-140.05;100.00;61859.38;4999911;28;20877;-65
2021/10/05 05:03:59;;;;;;;29.23;14.20;;;;;;;-140.05;100.00;61859.38;5013937;28;20440;-66
2021/10/05 05:06:26;;;;;;;32.37;14.87;;;;;;;-140.05;100.00;61859.38;5014561;28;20511;-68
2021/10/05 05:08:53;;;;;;;30.10;14.10;;;;;;;-140.05;100.00;61859.38;5015408;28;20452;-65
2021/10/05 05:11:20;;;;;;;34.57;14.03;;;;;;;-140.05;100.00;61859.38;5014454;28;20456;-65
2021/10/05 05:13:47;;;;;;;26.33;14.07;;;;;;;-140.05;100.00;61859.38;5010197;28;20445;-70
2021/10/05 05:16:14;;;;;;;27.93;14.40;;;;;;;-140.05;100.00;61859.38;5005515;28;20474;-68
2021/10/05 05:18:41;;;;;;;32.77;15.63;;;;;;;-140.05;100.00;61859.38;4997634;28;20533;-65
2021/10/05 05:21:08;;;;;;;29.20;14.87;;;;;;;-140.05;100.00;61859.38;5015881;28;20444;-65
2021/10/05 05:23:34;;;;;;;31.47;14.70;;;;;;;-140.05;100.00;61859.38;5008410;28;20448;-64
2021/10/05 05:26:02;;;;;;;28.20;15.03;;;;;;;-140.05;100.00;61859.38;5019623;28;20880;-63
2021/10/05 05:28:29;;;;;;;24.43;14.83;;;;;;;-140.05;100.00;61859.38;5016201;28;20437;-63
2021/10/05 05:30:56;;;;;;;29.17;14.90;;;;;;;-140.05;100.00;61859.38;5009173;28;20452;-65
2021/10/05 05:33:23;;;;;;;27.13;15.80;;;;;;;-140.05;100.00;61859.38;5015096;28;20519;-64
2021/10/05 05:35:50;;;;;;;26.50;14.87;;;;;;;-140.05;100.00;61859.38;5005524;28;20476;-64
2021/10/05 05:38:17;;;;;;;30.37;15.27;;;;;;;-140.05;100.00;61859.38;5010477;28;20815;-64
2021/10/05 05:40:44;;;;;;;24.63;14.30;;;;;;;-140.05;100.00;61859.38;5009653;28;20455;-63
2021/10/05 05:43:11;;;;;;;24.13;14.60;;;;;;;-140.05;100.00;61859.38;5010331;28;20447;-63
2021/10/05 05:45:40;;;;;;;28.13;15.60;;;;;;;-140.05;100.00;61859.38;5010146;28;20461;-65
2021/10/05 05:48:07;;;;;;;33.77;15.57;;;;;;;-140.05;100.00;61859.38;5005813;28;20483;-64
2021/10/05 05:50:34;;;;;;;23.90;15.83;;;;;;;-140.05;100.00;61859.38;5010257;28;20444;-66
2021/10/05 05:53:01;;;;;;;33.50;18.53;;;;;;;-140.05;100.00;61859.38;5010096;28;20449;-64
2021/10/05 05:55:28;;;;;;;31.03;20.50;;;;;;;-140.05;100.00;61859.38;5009989;28;20429;-65
2021/10/05 05:57:55;;;;;;;35.50;20.70;;;;;;;-140.05;100.00;61859.38;5006339;28;20482;-65
2021/10/05 06:00:22;;;;;;;36.83;19.07;;;;;;;-140.05;100.00;61859.38;5015164;28;20450;-66
2021/10/05 06:02:49;;;;;;;40.03;20.63;;;;;;;-140.05;100.00;61859.38;4989825;28;20445;-66
2021/10/05 06:05:16;;;;;;;29.33;19.70;;;;;;;-140.05;100.00;61859.38;4992810;28;20557;-67
2021/10/05 06:07:43;;;;;;;45.60;23.40;;;;;;;-140.05;100.00;61859.38;5022577;28;20440;-65
2021/10/05 06:10:10;;;;;;;37.43;24.00;;;;;;;-140.05;100.00;61859.38;5009906;28;20444;-67
2021/10/05 06:12:39;;;;;;;56.73;26.80;;;;;;;-140.05;100.00;61859.38;5009018;28;20433;-65
2021/10/05 06:15:12;;;;;;;38.63;24.70;;;;;;;-140.05;100.00;61859.38;5009704;28;20954;-63
2021/10/05 06:17:41;;;;;;;38.57;22.33;;;;;;;-140.05;100.00;61859.38;5009306;28;20540;-64
2021/10/05 06:20:13;;;;;;;46.67;25.60;;;;;;;-140.05;100.00;61859.38;5009963;28;20437;-63
2021/10/05 06:22:41;;;;;;;46.77;25.67;;;;;;;-140.05;100.00;61859.38;5008747;28;20882;-64
2021/10/05 06:25:13;;;;;;;35.73;23.20;;;;;;;-140.05;100.00;61859.38;5009264;28;20453;-65
2021/10/05 06:27:41;;;;;;;37.83;23.60;;;;;;;-140.05;100.00;61859.38;5007137;28;20475;-65
2021/10/05 06:30:10;;;;;;;33.73;23.23;;;;;;;-140.05;100.00;61859.38;5009608;28;20455;-65
2021/10/05 06:32:37;;;;;;;31.63;21.10;;;;;;;-140.05;100.00;61859.38;5009126;28;20467;-64
2021/10/05 06:35:05;;;;;;;40.73;24.17;;;;;;;-140.05;100.00;61859.38;5009624;28;20441;-63
2021/10/05 06:37:32;;;;;;;30.80;22.47;;;;;;;-140.05;100.00;61859.38;5008645;28;20792;-66
2021/10/05 06:39:58;;;;;;;31.30;22.77;;;;;;;-140.05;100.00;61859.38;5005096;28;20980;-63
2021/10/05 06:42:26;;;;;;;32.40;20.50;;;;;;;-140.05;100.00;61859.38;4990714;28;21058;-63
2021/10/05 06:44:53;;;;;;;24.63;20.13;;;;;;;-140.05;100.00;61859.38;5007760;28;20455;-67
2021/10/05 06:47:19;;;;;;;31.07;20.43;;;;;;;-140.05;100.00;61859.38;5011145;28;20492;-65
2021/10/05 06:49:47;;;;;;;34.20;20.10;;;;;;;-140.05;100.00;61859.38;5018717;28;20441;-66
2021/10/05 06:52:13;;;;;;;31.33;19.37;;;;;;;-140.05;100.00;61859.38;5011176;28;20441;-66
2021/10/05 06:54:40;;;;;;;22.13;17.77;;;;;;;-140.05;100.00;61859.38;5012201;28;20786;-65
2021/10/05 06:57:07;;;;;;;33.97;16.30;;;;;;;-140.05;100.00;61859.38;5017870;28;20444;-65
2021/10/05 06:59:34;;;;;;;25.33;15.17;;;;;;;-140.05;100.00;61859.38;5014010;28;20476;-67
2021/10/05 07:02:01;;;;;;;18.30;13.00;;;;;;;-140.05;100.00;61859.38;4998542;28;20448;-66
2021/10/05 07:04:29;;;;;;;20.43;13.43;;;;;;;-140.05;100.00;61859.38;5014414;28;20460;-64
2021/10/05 07:06:56;;;;;;;17.97;13.00;;;;;;;-140.05;100.00;61859.38;5013333;28;20480;-64
2021/10/05 07:09:23;;;;;;;21.00;11.43;;;;;;;-140.05;100.00;61859.38;5013694;28;20447;-63
2021/10/05 07:11:50;;;;;;;16.07;11.70;;;;;;;-140.05;100.00;61859.38;5013488;28;20448;-65
2021/10/05 07:14:17;;;;;;;15.40;10.97;;;;;;;-140.05;100.00;61859.38;5013757;28;20520;-64
2021/10/05 07:16:44;;;;;;;15.60;11.07;;;;;;;-140.05;100.00;61859.38;5013233;28;20451;-63
2021/10/05 07:19:24;;;;;;;14.97;10.37;;;;;;;-140.05;100.00;61859.38;5013809;28;20444;-64
2021/10/05 07:21:51;;;;;;;14.80;11.30;;;;;;;-140.05;100.00;61859.38;5023044;28;20440;-64
2021/10/05 07:24:18;;;;;;;23.10;10.07;;;;;;;-140.05;100.00;61859.38;5017927;28;20958;-66
2021/10/05 07:26:45;;;;;;;18.83;10.33;;;;;;;-140.05;100.00;61859.38;5013054;28;20530;-64
2021/10/05 07:29:13;;;;;;;16.10;9.43;;;;;;;-140.05;100.00;61859.38;5013490;28;20439;-63
2021/10/05 07:31:40;;;;;;;16.57;9.73;;;;;;;-140.05;100.00;61859.38;5013027;28;20440;-63
2021/10/05 07:34:07;;;;;;;14.17;9.27;;;;;;;-140.05;100.00;61859.38;5013225;28;20450;-65
2021/10/05 07:36:34;;;;;;;15.70;9.67;;;;;;;-140.05;100.00;61859.38;5013275;28;20437;-63
2021/10/05 07:39:01;;;;;;;16.83;9.97;;;;;;;-140.05;100.00;61859.38;5013286;28;21000;-64
2021/10/05 07:41:28;;;;;;;15.60;9.60;;;;;;;-140.05;100.00;61859.38;5026952;28;20448;-64
2021/10/05 07:43:55;;;;;;;14.07;10.27;;;;;;;-140.05;100.00;61859.38;5013329;28;20997;-62
2021/10/05 07:46:21;;;;;;;31.90;10.37;;;;;;;-140.05;100.00;61859.38;5012547;28;20472;-65
2021/10/05 07:48:49;;;;;;;14.10;9.77;;;;;;;-140.05;100.00;61859.38;5021068;28;20462;-64
2021/10/05 07:51:15;;;;;;;17.63;10.63;;;;;;;-140.05;100.00;61859.38;5018888;28;20444;-63
2021/10/05 07:53:42;;;;;;;17.07;10.23;;;;;;;-140.05;100.00;61859.38;4999222;28;20437;-63
2021/10/05 07:56:09;;;;;;;17.60;10.57;;;;;;;-140.05;100.00;61859.38;5012903;28;20448;-65
2021/10/05 07:58:36;;;;;;;14.63;9.80;;;;;;;-140.05;100.00;61859.38;5011510;28;21064;-65
2021/10/05 08:01:04;;;;;;;17.37;9.70;;;;;;;-140.05;100.00;61859.38;5012331;28;20448;-62
2021/10/05 08:03:31;;;;;;;19.50;9.67;;;;;;;-140.05;100.00;61859.38;4999220;28;20955;-63
2021/10/05 08:05:58;;;;;;;12.83;9.50;;;;;;;-140.05;100.00;61859.38;5017188;28;20468;-64
2021/10/05 08:08:25;;;;;;;16.90;10.00;;;;;;;-140.05;100.00;61859.38;5021316;28;21026;-63
2021/10/05 08:10:52;;;;;;;14.80;9.90;;;;;;;-140.05;100.00;61859.38;5012097;28;20449;-65
2021/10/05 08:13:19;;;;;;;16.23;8.77;;;;;;;-140.05;100.00;61859.38;5013222;28;20444;-63
2021/10/05 08:15:46;;;;;;;15.10;9.33;;;;;;;-140.05;100.00;61859.38;5012184;28;20488;-67
2021/10/05 08:18:13;;;;;;;16.70;9.03;;;;;;;-140.05;100.00;61859.38;5012386;28;20449;-65
2021/10/05 08:20:42;;;;;;;13.90;8.93;;;;;;;-140.05;100.00;61859.38;5012333;28;20448;-65
2021/10/05 08:23:09;;;;;;;23.27;9.13;;;;;;;-140.05;100.00;61859.38;5012869;28;20448;-65
2021/10/05 08:25:36;;;;;;;22.93;9.30;;;;;;;-140.05;100.00;61859.38;5012522;28;20445;-64
2021/10/05 08:28:04;;;;;;;16.47;9.00;;;;;;;-140.05;100.00;61859.38;5011985;28;20469;-67
2021/10/05 08:30:33;;;;;;;22.87;9.23;;;;;;;-140.05;100.00;61859.38;5013439;28;20499;-66
2021/10/05 08:32:59;;;;;;;20.50;8.43;;;;;;;-140.05;100.00;61859.38;5012325;28;20970;-65
2021/10/05 08:35:27;;;;;;;17.30;8.73;;;;;;;-140.05;100.00;61859.38;5013142;28;20450;-66
2021/10/05 08:37:56;;;;;;;17.57;8.63;;;;;;;-140.05;100.00;61859.38;5012112;28;20437;-64
2021/10/05 08:40:25;;;;;;;12.40;8.73;;;;;;;-140.05;100.00;61859.38;5013892;28;20446;-64
2021/10/05 08:42:52;;;;;;;16.10;8.40;;;;;;;-140.05;100.00;61859.38;5013612;28;20985;-66
2021/10/05 08:45:20;;;;;;;12.03;8.30;;;;;;;-140.05;100.00;61859.38;5012982;28;20993;-63
2021/10/05 08:47:48;;;;;;;16.70;8.23;;;;;;;-140.05;100.00;61859.38;5012518;28;20222;-62
2021/10/05 08:50:17;;;;;;;15.53;8.47;;;;;;;-140.05;100.00;61859.38;5012174;28;20201;-64
2021/10/05 08:52:45;;;;;;;22.10;9.00;;;;;;;-140.05;100.00;61859.38;5011485;28;20211;-64
2021/10/05 08:55:13;;;;;;;21.47;8.07;;;;;;;-140.05;100.00;61859.38;5011879;28;20499;-65
2021/10/05 08:57:39;;;;;;;14.53;8.50;;;;;;;-140.05;100.00;61859.38;5010986;28;20237;-63
2021/10/05 09:00:07;;;;;;;13.97;8.23;;;;;;;-140.05;100.00;61859.38;5011074;28;21190;-65
2021/10/05 09:02:53;;;;;;;16.50;8.33;;;;;;;-140.05;100.00;61859.38;5003597;28;20212;-63
2021/10/05 09:05:25;;;;;;;19.40;8.77;;;;;;;-140.05;100.00;61859.38;5009266;28;20205;-65
2021/10/05 09:07:57;;;;;;;16.03;7.63;;;;;;;-140.05;100.00;61859.38;5024212;28;20707;-64
2021/10/05 09:10:30;;;;;;;16.17;8.17;;;;;;;-140.05;100.00;61859.38;5011753;28;20664;-63
2021/10/05 09:12:58;;;;;;;13.77;7.37;;;;;;;-140.05;100.00;61859.38;5011274;28;20252;-62
2021/10/05 09:15:25;;;;;;;10.03;6.63;;;;;;;-140.05;100.00;61859.38;5011647;28;20268;-64
2021/10/05 09:17:58;;;;;;;10.47;6.80;;;;;;;-140.05;100.00;61859.38;5010596;28;20202;-64
2021/10/05 09:20:34;;;;;;;13.00;6.33;;;;;;;-140.05;100.00;61859.38;5011646;28;20304;-64
2021/10/05 09:23:09;;;;;;;10.77;6.13;;;;;;;-140.05;100.00;61859.38;5011100;28;20250;-64
2021/10/05 09:25:46;;;;;;;17.60;6.63;;;;;;;-140.05;100.00;61859.38;5011141;28;20201;-64
2021/10/05 09:28:13;;;;;;;14.53;6.47;;;;;;;-140.05;100.00;61859.38;5011313;28;20275;-62
2021/10/05 09:30:41;;;;;;;11.60;6.13;;;;;;;-140.05;100.00;61859.38;5011278;28;20260;-63
2021/10/05 09:33:08;;;;;;;13.00;6.10;;;;;;;-140.05;100.00;61859.38;5011040;28;20293;-65
2021/10/05 09:35:43;;;;;;;8.93;5.17;;;;;;;-140.05;100.00;61859.38;5011005;28;20213;-68
2021/10/05 09:38:20;;;;;;;12.13;5.03;;;;;;;-140.05;100.00;61859.38;5011366;28;20236;-65
2021/10/05 09:41:05;;;;;;;12.87;5.20;;;;;;;-140.05;100.00;61859.38;5011402;28;20201;-65
2021/10/05 09:43:32;;;;;;;13.03;4.73;;;;;;;-140.05;100.00;61859.38;4997668;28;20279;-64
2021/10/05 09:46:12;;;;;;;11.57;4.87;;;;;;;-140.05;100.00;61859.38;4997712;28;21016;-64
2021/10/05 09:48:40;;;;;;;13.70;5.37;;;;;;;-140.05;100.00;61859.38;4997183;28;20193;-66
2021/10/05 09:51:24;;;;;;;7.23;4.60;;;;;;;-140.05;100.00;61859.38;5010108;28;20529;-63
2021/10/05 09:53:53;;;;;;;12.90;4.77;;;;;;;-140.05;100.00;61859.38;5010709;28;20198;-62
2021/10/05 09:56:21;;;;;;;9.63;4.80;;;;;;;-140.05;100.00;61859.38;5010533;28;20690;-64
2021/10/05 09:58:52;;;;;;;9.13;4.40;;;;;;;-140.05;100.00;61859.38;5004301;28;20318;-63
2021/10/05 10:01:20;;;;;;;10.03;4.57;;;;;;;-140.05;100.00;61859.38;4991418;28;20206;-67
2021/10/05 10:03:49;;;;;;;13.60;4.40;;;;;;;-140.05;100.00;61859.38;5008314;28;20202;-65
2021/10/05 10:06:17;;;;;;;9.00;4.63;;;;;;;-140.05;100.00;61859.38;5009765;28;20236;-63
2021/10/05 10:08:55;;;;;;;10.43;4.07;;;;;;;-140.05;100.00;61859.38;5010534;28;20240;-63
2021/10/05 10:11:23;;;;;;;7.57;4.17;;;;;;;-140.05;100.00;61859.38;5010528;28;20205;-63
2021/10/05 10:13:51;;;;;;;8.33;4.00;;;;;;;-140.05;100.00;61859.38;5010969;28;20691;-62
2021/10/05 10:16:18;;;;;;;7.70;4.47;;;;;;;-140.05;100.00;61859.38;4996253;28;20198;-64
2021/10/05 10:18:50;;;;;;;12.53;4.27;;;;;;;-140.05;100.00;61859.38;5022439;28;21124;-65
2021/10/05 10:21:25;;;;;;;5.63;4.47;;;;;;;-140.05;100.00;61859.38;5010028;28;20308;-65
2021/10/05 10:24:10;;;;;;;9.13;4.30;;;;;;;-140.05;100.00;61859.38;5010848;28;20265;-64
2021/10/05 10:26:40;;;;;;;6.50;4.23;;;;;;;-140.05;100.00;61859.38;5010024;28;20320;-65
2021/10/05 10:29:29;;;;;;;11.57;6.03;;;;;;;-140.05;100.00;61859.38;5010429;28;20285;-63
2021/10/05 10:31:56;;;;;;;8.60;4.50;;;;;;;-140.05;100.00;61859.38;5010420;28;20202;-68
2021/10/05 10:34:23;;;;;;;10.70;4.40;;;;;;;-140.05;100.00;61859.38;5012074;28;20575;-65
2021/10/05 10:36:51;;;;;;;7.07;4.10;;;;;;;-140.05;100.00;61859.38;5003991;28;20565;-66
2021/10/05 10:39:23;;;;;;;5.90;4.30;;;;;;;-140.05;100.00;61859.38;4991574;28;20352;-64
2021/10/05 10:41:53;;;;;;;14.30;4.43;;;;;;;-140.05;100.00;61859.38;4996976;28;20204;-64
2021/10/05 10:44:28;;;;;;;7.33;5.50;;;;;;;-140.05;100.00;61859.38;5010187;28;20212;-63
2021/10/05 10:47:18;;;;;;;6.20;3.80;;;;;;;-140.05;100.00;61859.38;5009245;28;20224;-64
2021/10/05 10:49:59;;;;;;;11.20;5.03;;;;;;;-140.05;100.00;61859.38;4996483;28;20210;-65
2021/10/05 10:52:34;;;;;;;5.57;3.90;;;;;;;-140.05;100.00;61859.38;5009986;28;20204;-62
2021/10/05 10:55:03;;;;;;;9.97;4.90;;;;;;;-140.05;100.00;61859.38;5010140;28;20267;-65
2021/10/05 10:57:34;;;;;;;9.07;4.40;;;;;;;-140.05;100.00;61859.38;5009667;28;20221;-63
2021/10/05 11:00:28;;;;;;;7.40;4.23;;;;;;;-140.05;100.00;61859.38;4994160;28;20206;-65
2021/10/05 11:03:00;;;;;;;4.97;3.73;;;;;;;-140.05;100.00;61859.38;4992361;28;20213;-66
2021/10/05 11:05:34;;;;;;;9.13;4.60;;;;;;;-140.05;100.00;61859.38;4993917;28;20210;-65
2021/10/05 11:08:11;;;;;;;14.37;4.50;;;;;;;-140.05;100.00;61859.38;5011299;28;20649;-62